Time;durP1;ratioP1;P1;durP2;ratioP2;P2;SDS_P1;SDS_P2;PMS_P1;PMS_P2;Temp;Humidity;BMP_temperature;BMP_pressure;BME280_temperature;BME280_humidity;BME280_pressure;Samples;Min_cycle;Max_cycle;Signal;HPM_P1;HPM_P2
2021/03/24 00:00:01;;;;;;;11.43;9.25;;;22.40;45.70;;;;;;4898455;29;20028;-57
2021/03/24 00:02:27;;;;;;;8.32;7.40;;;22.40;45.80;;;;;;4915710;29;20059;-57
2021/03/24 00:04:53;;;;;;;8.73;7.68;;;22.40;45.80;;;;;;4882583;29;20032;-52
2021/03/24 00:07:19;;;;;;;12.95;8.65;;;22.40;45.70;;;;;;4913442;29;20114;-53
2021/03/24 00:09:45;;;;;;;10.77;8.05;;;22.40;45.70;;;;;;4896408;29;20036;-53
2021/03/24 00:12:11;;;;;;;10.93;7.93;;;22.40;45.70;;;;;;4881077;29;20153;-52
2021/03/24 00:14:37;;;;;;;9.73;7.03;;;22.40;45.70;;;;;;4913657;29;20078;-51
2021/03/24 00:17:04;;;;;;;9.20;6.85;;;22.40;45.70;;;;;;4914396;29;20445;-52
2021/03/24 00:19:29;;;;;;;11.00;7.63;;;22.40;45.70;;;;;;4915028;29;20103;-52
2021/03/24 00:21:55;;;;;;;9.50;7.25;;;22.40;45.70;;;;;;4916116;29;20108;-57
2021/03/24 00:24:21;;;;;;;9.02;7.25;;;22.40;45.60;;;;;;4883589;29;20043;-57
2021/03/24 00:26:47;;;;;;;8.88;6.78;;;22.40;45.60;;;;;;4898894;29;20048;-57
2021/03/24 00:29:13;;;;;;;11.00;7.18;;;22.40;45.60;;;;;;4915609;29;20382;-57
2021/03/24 00:31:40;;;;;;;8.32;6.60;;;22.40;45.60;;;;;;4915501;29;20112;-56
2021/03/24 00:34:06;;;;;;;7.65;6.55;;;22.30;45.60;;;;;;4898408;29;20029;-57
2021/03/24 00:36:32;;;;;;;11.25;7.28;;;22.40;45.60;;;;;;4901418;29;20032;-52
2021/03/24 00:38:58;;;;;;;10.10;5.93;;;22.30;45.60;;;;;;4901122;29;20028;-52
2021/03/24 00:41:24;;;;;;;7.47;6.40;;;22.30;45.50;;;;;;4901641;29;20028;-52
2021/03/24 00:43:51;;;;;;;9.70;6.95;;;22.30;45.50;;;;;;4919101;29;20028;-52
2021/03/24 00:46:17;;;;;;;7.32;5.63;;;22.30;45.50;;;;;;4919520;29;20032;-53
2021/03/24 00:48:43;;;;;;;9.05;6.38;;;22.30;45.50;;;;;;4919440;29;20043;-53
2021/03/24 00:51:09;;;;;;;7.22;5.63;;;22.30;45.40;;;;;;4919675;29;20032;-52
2021/03/24 00:53:35;;;;;;;6.35;5.53;;;22.30;45.40;;;;;;4919637;29;20533;-52
2021/03/24 00:56:01;;;;;;;7.28;5.53;;;22.30;45.30;;;;;;4901310;29;20398;-52
2021/03/24 00:58:27;;;;;;;9.88;5.63;;;22.30;45.30;;;;;;4918525;29;20103;-52
2021/03/24 01:00:53;;;;;;;6.65;5.60;;;22.30;45.30;;;;;;4919243;29;20028;-52
2021/03/24 01:03:19;;;;;;;5.53;4.35;;;22.30;45.30;;;;;;4902077;29;20083;-52
2021/03/24 01:05:49;;;;;;;5.30;4.50;;;22.30;45.20;;;;;;4901769;29;20028;-52
2021/03/24 01:08:20;;;;;;;7.05;5.30;;;22.30;45.10;;;;;;4898777;29;20485;-52
2021/03/24 01:10:46;;;;;;;7.00;4.72;;;22.20;45.10;;;;;;4900925;29;20028;-52
2021/03/24 01:13:14;;;;;;;5.70;5.07;;;22.30;45.10;;;;;;4918040;29;20055;-52
2021/03/24 01:15:41;;;;;;;5.72;4.57;;;22.20;45.00;;;;;;4918891;29;20036;-52
2021/03/24 01:18:07;;;;;;;6.50;4.55;;;22.20;45.00;;;;;;4917961;29;20040;-52
2021/03/24 01:20:37;;;;;;;8.90;5.05;;;22.30;45.00;;;;;;4918515;29;20035;-52
2021/03/24 01:23:03;;;;;;;6.60;4.35;;;22.20;44.80;;;;;;4901215;29;20028;-52
2021/03/24 01:25:29;;;;;;;7.05;4.57;;;22.20;44.80;;;;;;4918691;29;20039;-52
2021/03/24 01:27:56;;;;;;;9.43;4.47;;;22.20;44.90;;;;;;4918710;29;20562;-52
2021/03/24 01:30:25;;;;;;;5.28;3.88;;;22.20;44.80;;;;;;4918538;29;20056;-54
2021/03/24 01:32:51;;;;;;;5.30;4.43;;;22.20;44.80;;;;;;4918750;29;20386;-53
2021/03/24 01:35:18;;;;;;;7.25;4.32;;;22.20;44.60;;;;;;4900975;29;20479;-53
2021/03/24 01:37:44;;;;;;;6.25;4.20;;;22.20;44.70;;;;;;4917668;29;20409;-52
2021/03/24 01:40:35;;;;;;;6.80;3.88;;;22.20;44.60;;;;;;4901691;29;20416;-52
2021/03/24 01:43:03;;;;;;;;;;;22.10;44.60;;;;;;4895260;29;20099;-52
2021/03/24 01:45:28;;;;;;;5.22;3.72;;;22.10;44.80;;;;;;4900700;29;19922;-52
2021/03/24 01:47:57;;;;;;;4.28;3.17;;;22.20;44.50;;;;;;4918689;29;20031;-52
2021/03/24 01:50:29;;;;;;;8.05;4.22;;;22.20;44.40;;;;;;4918067;29;20043;-52
2021/03/24 01:52:55;;;;;;;5.85;3.72;;;22.20;44.40;;;;;;4918631;29;20090;-52
2021/03/24 01:55:22;;;;;;;6.93;3.67;;;22.20;44.40;;;;;;4917637;29;20111;-52
2021/03/24 01:57:48;;;;;;;4.80;3.55;;;22.20;44.40;;;;;;4900508;29;20040;-52
2021/03/24 02:00:25;;;;;;;3.95;3.55;;;22.10;44.30;;;;;;4900425;29;20474;-53
2021/03/24 02:02:51;;;;;;;5.75;3.70;;;22.10;44.10;;;;;;4916941;29;20063;-52
2021/03/24 02:05:18;;;;;;;4.43;3.45;;;22.10;44.20;;;;;;4916142;29;20508;-52
2021/03/24 02:07:57;;;;;;;4.05;2.92;;;22.10;44.10;;;;;;4899274;29;20028;-52
2021/03/24 02:10:42;;;;;;;4.57;2.90;;;22.10;43.90;;;;;;4917048;29;20138;-53
2021/03/24 02:13:57;;;;;;;4.28;2.67;;;22.10;43.90;;;;;;4899704;29;20043;-52
2021/03/24 02:16:34;;;;;;;2.72;2.53;;;22.10;44.00;;;;;;4914800;29;20506;-52
2021/03/24 02:19:08;;;;;;;4.80;3.28;;;22.10;43.80;;;;;;4916794;29;20111;-52
2021/03/24 02:21:38;;;;;;;5.95;3.45;;;22.10;43.80;;;;;;4917154;29;20056;-52
2021/03/24 02:24:15;;;;;;;3.10;2.72;;;22.10;43.80;;;;;;4916487;29;20028;-52
2021/03/24 02:27:03;;;;;;;4.20;3.03;;;22.10;43.80;;;;;;4917166;29;20046;-52
2021/03/24 02:29:30;;;;;;;3.13;2.40;;;22.00;43.80;;;;;;4917031;29;20470;-52
2021/03/24 02:31:58;;;;;;;4.00;3.00;;;22.10;43.70;;;;;;4900032;29;20032;-52
2021/03/24 02:34:27;;;;;;;2.90;2.58;;;22.00;43.60;;;;;;4916833;29;20043;-52
2021/03/24 02:36:55;;;;;;;3.88;2.90;;;22.00;43.40;;;;;;4916452;29;20099;-52
2021/03/24 02:39:24;;;;;;;5.32;3.00;;;22.00;43.50;;;;;;4917280;29;20035;-52
2021/03/24 02:41:52;;;;;;;6.53;2.97;;;22.00;43.40;;;;;;4917306;29;20028;-52
2021/03/24 02:44:19;;;;;;;3.63;2.83;;;22.00;43.50;;;;;;4917025;29;20514;-53
2021/03/24 02:46:45;;;;;;;3.35;2.65;;;22.00;43.40;;;;;;4917515;29;20032;-52
2021/03/24 02:49:12;;;;;;;4.85;2.83;;;22.00;43.50;;;;;;4917183;29;20131;-53
2021/03/24 02:51:39;;;;;;;3.47;2.53;;;22.00;43.50;;;;;;4917076;29;20063;-53
2021/03/24 02:54:10;;;;;;;6.38;2.78;;;22.00;43.40;;;;;;4916396;29;20040;-52
2021/03/24 02:56:37;;;;;;;4.15;2.42;;;22.00;43.30;;;;;;4915549;29;20115;-53
2021/03/24 02:59:04;;;;;;;3.13;2.50;;;21.90;43.30;;;;;;4899305;29;20103;-52
2021/03/24 03:01:45;;;;;;;4.32;3.00;;;22.00;43.40;;;;;;4899006;29;20044;-52
2021/03/24 03:04:36;;;;;;;3.22;2.33;;;21.90;43.20;;;;;;4915921;29;20020;-52
2021/03/24 03:07:08;;;;;;;3.42;2.15;;;21.90;43.30;;;;;;4876681;29;20566;-52
2021/03/24 03:09:51;;;;;;;3.95;2.47;;;21.90;43.10;;;;;;4916490;29;20103;-52
2021/03/24 03:12:41;;;;;;;4.30;2.83;;;21.90;43.00;;;;;;4916742;29;20086;-52
2021/03/24 03:15:11;;;;;;;3.40;2.17;;;21.90;42.90;;;;;;4906410;29;20051;-52
2021/03/24 03:17:49;;;;;;;3.42;2.60;;;21.90;42.90;;;;;;4916157;29;20039;-52
2021/03/24 03:20:26;;;;;;;4.40;2.53;;;21.90;42.80;;;;;;4916331;29;20028;-52
2021/03/24 03:22:59;;;;;;;3.33;2.45;;;21.90;43.00;;;;;;4916538;29;20096;-52
2021/03/24 03:25:29;;;;;;;4.65;2.30;;;21.90;42.80;;;;;;4916432;29;20024;-52
2021/03/24 03:27:59;;;;;;;4.00;2.35;;;21.90;43.00;;;;;;4916896;29;20438;-52
2021/03/24 03:30:31;;;;;;;5.60;2.80;;;21.90;42.90;;;;;;4916313;29;20040;-52
2021/03/24 03:33:01;;;;;;;4.43;2.83;;;21.90;42.70;;;;;;4899282;29;20043;-52
2021/03/24 03:35:30;;;;;;;4.45;2.88;;;21.90;42.80;;;;;;4898619;29;20054;-52
2021/03/24 03:38:00;;;;;;;2.83;2.30;;;21.90;42.80;;;;;;4915441;29;20043;-53
2021/03/24 03:40:29;;;;;;;3.20;2.33;;;21.90;42.80;;;;;;4915213;29;20036;-52
2021/03/24 03:42:56;;;;;;;3.73;2.57;;;21.80;42.70;;;;;;4915838;29;20043;-52
2021/03/24 03:45:23;;;;;;;4.38;2.22;;;21.90;42.70;;;;;;4916589;29;20031;-52
2021/03/24 03:47:50;;;;;;;3.78;2.63;;;21.90;42.70;;;;;;4916453;29;20046;-52
2021/03/24 03:50:26;;;;;;;2.15;1.92;;;21.80;42.60;;;;;;4916532;29;20084;-52
2021/03/24 03:53:04;;;;;;;3.10;2.30;;;21.80;42.40;;;;;;4916027;29;20532;-52
2021/03/24 03:55:39;;;;;;;3.85;2.83;;;21.80;42.40;;;;;;4916483;29;20490;-53
2021/03/24 03:58:37;;;;;;;3.20;2.28;;;21.80;42.40;;;;;;4915868;29;20037;-54
2021/03/24 04:01:23;;;;;;;2.58;2.08;;;21.80;42.50;;;;;;4898008;29;20090;-53
2021/03/24 04:04:03;;;;;;;2.55;2.35;;;21.80;42.40;;;;;;4915282;29;20035;-53
2021/03/24 04:06:35;;;;;;;2.38;1.95;;;21.80;42.30;;;;;;4916664;29;20028;-57
2021/03/24 04:09:01;;;;;;;3.75;2.10;;;21.80;42.20;;;;;;4918879;29;20059;-56
2021/03/24 04:11:31;;;;;;;5.40;2.78;;;21.80;42.30;;;;;;4903282;29;20040;-56
2021/03/24 04:14:00;;;;;;;2.75;2.03;;;21.80;42.30;;;;;;4920235;29;20099;-57
2021/03/24 04:16:27;;;;;;;3.22;1.95;;;21.80;42.40;;;;;;4920037;29;20064;-57
2021/03/24 04:19:00;;;;;;;3.78;2.00;;;21.80;42.40;;;;;;4901408;29;20036;-58
2021/03/24 04:21:30;;;;;;;2.58;2.30;;;21.80;42.10;;;;;;4919055;29;20079;-57
2021/03/24 04:24:21;;;;;;;3.10;2.25;;;21.80;42.20;;;;;;4920413;29;20475;-57
2021/03/24 04:26:49;;;;;;;2.70;1.95;;;21.70;42.20;;;;;;4902102;29;20040;-57
2021/03/24 04:29:24;;;;;;;3.58;2.42;;;21.80;42.20;;;;;;4916540;29;20056;-57
2021/03/24 04:31:56;;;;;;;3.50;2.08;;;21.70;42.10;;;;;;4902733;29;20074;-57
2021/03/24 04:34:23;;;;;;;4.78;1.95;;;21.70;42.10;;;;;;4919968;29;20387;-57
2021/03/24 04:37:16;;;;;;;4.50;2.33;;;21.70;42.20;;;;;;4920125;29;20068;-57
2021/03/24 04:39:47;;;;;;;2.80;2.03;;;21.70;42.10;;;;;;4919809;29;20028;-57
2021/03/24 04:42:22;;;;;;;2.20;1.90;;;21.70;42.10;;;;;;4920270;29;20087;-57
2021/03/24 04:44:53;;;;;;;2.42;2.00;;;21.70;42.10;;;;;;4901442;29;20040;-57
2021/03/24 04:47:26;;;;;;;2.60;2.13;;;21.70;42.00;;;;;;4901301;29;20032;-57
2021/03/24 04:49:58;;;;;;;2.90;2.25;;;21.70;42.00;;;;;;4918733;29;20056;-57
2021/03/24 04:52:26;;;;;;;3.80;2.40;;;21.70;42.00;;;;;;4920138;29;20040;-57
2021/03/24 04:54:57;;;;;;;3.38;2.20;;;21.70;42.60;;;;;;4919461;29;20510;-57
2021/03/24 04:57:25;;;;;;;4.07;2.20;;;21.70;42.00;;;;;;4919570;29;20077;-57
2021/03/24 04:59:57;;;;;;;3.53;1.90;;;21.70;42.00;;;;;;4919558;29;20127;-57
2021/03/24 05:02:28;;;;;;;2.40;2.10;;;21.70;41.90;;;;;;4919171;29;20020;-57
2021/03/24 05:05:01;;;;;;;4.85;2.38;;;21.70;41.90;;;;;;4902748;29;20032;-57
2021/03/24 05:07:44;;;;;;;4.30;2.28;;;21.70;41.90;;;;;;4919638;29;20084;-57
2021/03/24 05:10:19;;;;;;;3.85;2.30;;;21.70;41.90;;;;;;4902841;29;20043;-57
2021/03/24 05:12:55;;;;;;;4.43;2.30;;;21.70;41.90;;;;;;4902114;29;20047;-57
2021/03/24 05:15:32;;;;;;;3.50;2.10;;;21.70;41.90;;;;;;4901693;29;20063;-57
2021/03/24 05:18:01;;;;;;;3.72;2.72;;;21.70;41.80;;;;;;4919397;29;20491;-57
2021/03/24 05:20:50;;;;;;;3.73;2.37;;;21.70;41.90;;;;;;4918312;29;20546;-57
2021/03/24 05:23:19;;;;;;;3.90;2.15;;;21.70;41.90;;;;;;4902425;29;20040;-57
2021/03/24 05:25:52;;;;;;;4.63;2.35;;;21.70;41.80;;;;;;4919330;29;20016;-57
2021/03/24 05:28:39;;;;;;;4.18;2.20;;;21.60;41.70;;;;;;4902301;29;20047;-57
2021/03/24 05:31:40;;;;;;;3.85;2.30;;;21.60;41.80;;;;;;4919017;29;20031;-57
2021/03/24 05:34:14;;;;;;;2.88;2.22;;;21.60;41.80;;;;;;4878992;29;20037;-57
2021/03/24 05:36:43;;;;;;;5.25;2.30;;;21.70;41.60;;;;;;4873429;29;20045;-57
2021/03/24 05:39:12;;;;;;;5.70;2.47;;;21.60;41.60;;;;;;4878671;29;20036;-57
2021/03/24 05:41:48;;;;;;;2.38;2.15;;;21.60;41.60;;;;;;4879389;29;20037;-57
2021/03/24 05:44:29;;;;;;;5.32;2.28;;;21.60;41.60;;;;;;4879250;29;20119;-57
2021/03/24 05:47:32;;;;;;;4.72;2.30;;;21.60;41.60;;;;;;4879244;29;20125;-57
2021/03/24 05:50:16;;;;;;;5.03;2.30;;;21.60;41.60;;;;;;4879578;29;20499;-57
2021/03/24 05:52:42;;;;;;;3.85;2.20;;;21.60;41.60;;;;;;4878186;29;20036;-57
2021/03/24 05:55:19;;;;;;;2.92;2.08;;;21.60;41.60;;;;;;4879231;29;20399;-57
2021/03/24 05:58:00;;;;;;;4.45;2.40;;;21.60;41.60;;;;;;4860778;29;20078;-57
2021/03/24 06:00:34;;;;;;;3.35;1.60;;;21.60;41.50;;;;;;4862016;29;20322;-57
2021/03/24 06:03:07;;;;;;;2.42;2.13;;;21.60;41.60;;;;;;4878294;29;20615;-57
2021/03/24 06:06:26;;;;;;;3.97;2.42;;;21.60;41.50;;;;;;4879126;29;20029;-57
2021/03/24 06:08:52;;;;;;;4.68;2.25;;;21.50;41.50;;;;;;4823548;29;20050;-57
2021/03/24 06:11:32;;;;;;;3.88;2.38;;;21.60;41.60;;;;;;4830095;29;20066;-56
2021/03/24 06:14:03;;;;;;;3.20;2.33;;;21.50;41.50;;;;;;4841871;29;20081;-56
2021/03/24 06:16:49;;;;;;;3.97;2.20;;;21.60;41.50;;;;;;4824410;29;20046;-56
2021/03/24 06:19:37;;;;;;;3.78;2.25;;;21.50;41.40;;;;;;4824032;29;20030;-57
2021/03/24 06:22:14;;;;;;;4.68;2.50;;;21.50;41.50;;;;;;4841884;29;20026;-57
2021/03/24 06:24:59;;;;;;;3.47;2.92;;;21.50;41.40;;;;;;4838835;29;20031;-56
2021/03/24 06:27:40;;;;;;;3.72;3.13;;;21.50;41.40;;;;;;4823589;29;20404;-57
2021/03/24 06:30:17;;;;;;;;;;;21.50;41.20;;;;;;4824528;29;20034;-56
2021/03/24 06:33:11;;;;;;;5.28;2.67;;;21.50;41.70;;;;;;4828786;29;19920;-56
2021/03/24 06:35:43;;;;;;;3.45;2.20;;;21.60;41.30;;;;;;4831231;29;20042;-58
2021/03/24 06:38:51;;;;;;;3.42;2.42;;;21.50;41.20;;;;;;4822969;29;20099;-57
2021/03/24 06:41:32;;;;;;;5.18;2.65;;;21.50;41.30;;;;;;4916743;29;20043;-57
2021/03/24 06:44:32;;;;;;;4.93;2.38;;;21.50;41.40;;;;;;4920792;29;20064;-57
2021/03/24 06:47:06;;;;;;;6.40;2.80;;;21.50;41.40;;;;;;4917500;29;20036;-57
2021/03/24 06:49:44;;;;;;;4.68;2.40;;;21.50;41.20;;;;;;4895408;29;20092;-57
2021/03/24 06:52:40;;;;;;;4.35;2.08;;;21.50;41.20;;;;;;4931901;29;20031;-57
2021/03/24 06:55:46;;;;;;;4.78;2.78;;;21.50;41.30;;;;;;4925550;29;20036;-56
2021/03/24 06:58:57;;;;;;;3.10;2.13;;;21.50;41.30;;;;;;4925616;29;20060;-56
2021/03/24 07:01:44;;;;;;;6.72;2.28;;;21.50;41.10;;;;;;4880925;29;20048;-55
2021/03/24 07:04:15;;;;;;;4.68;2.45;;;21.50;41.10;;;;;;4914901;29;20046;-56
2021/03/24 07:07:17;;;;;;;3.17;2.58;;;21.50;40.90;;;;;;4913166;29;20031;-56
2021/03/24 07:09:52;;;;;;;6.65;2.75;;;21.50;41.10;;;;;;4918571;29;20543;-56
2021/03/24 07:12:21;;;;;;;4.32;2.55;;;21.50;41.00;;;;;;4898701;29;20403;-55
2021/03/24 07:15:00;;;;;;;2.88;2.38;;;21.60;41.20;;;;;;4912235;29;20048;-56
2021/03/24 07:17:43;;;;;;;3.30;2.17;;;21.60;41.10;;;;;;4916994;29;20035;-56
2021/03/24 07:20:32;;;;;;;4.82;2.83;;;21.50;41.00;;;;;;4916961;29;20111;-56
2021/03/24 07:23:35;;;;;;;5.40;2.67;;;21.60;41.10;;;;;;4890122;29;20044;-56
2021/03/24 07:26:50;;;;;;;4.57;2.38;;;21.60;41.00;;;;;;4914766;29;20362;-56
2021/03/24 07:29:54;;;;;;;5.32;3.20;;;21.60;41.00;;;;;;4839218;29;20038;-51
2021/03/24 07:32:29;;;;;;;4.25;2.78;;;21.60;41.00;;;;;;4907310;29;20055;-53
2021/03/24 07:35:07;;;;;;;4.53;3.40;;;21.70;40.80;;;;;;4914122;29;20035;-52
2021/03/24 07:37:51;;;;;;;8.00;5.30;;;21.60;40.70;;;;;;4914759;29;20062;-52
2021/03/24 07:40:24;;;;;;;12.55;9.57;;;21.70;41.40;;;;;;4912855;29;20051;-52
2021/03/24 07:43:10;;;;;;;13.98;10.80;;;21.70;40.60;;;;;;4898751;29;20032;-60
2021/03/24 07:45:56;;;;;;;15.23;12.75;;;21.70;40.70;;;;;;4904594;29;20039;-57
2021/03/24 07:48:40;;;;;;;13.20;10.65;;;21.70;40.70;;;;;;4921799;29;20028;-58
2021/03/24 07:51:51;;;;;;;13.93;10.43;;;21.80;41.30;;;;;;4921308;29;20032;-59
2021/03/24 07:54:53;;;;;;;11.20;9.60;;;21.80;40.80;;;;;;4893812;29;20040;-59
2021/03/24 07:57:50;;;;;;;14.27;10.70;;;21.80;40.60;;;;;;4916407;29;20119;-57
2021/03/24 08:00:44;;;;;;;21.63;16.85;;;21.90;40.50;;;;;;4905974;29;20542;-57
2021/03/24 08:03:15;;;;;;;23.80;18.75;;;21.90;40.40;;;;;;4906113;29;20411;-57
2021/03/24 08:06:14;;;;;;;21.50;19.23;;;21.90;40.50;;;;;;4922355;29;20032;-57
2021/03/24 08:09:15;;;;;;;21.77;15.75;;;21.90;40.40;;;;;;4914800;29;20156;-58
2021/03/24 08:12:14;;;;;;;18.95;15.40;;;22.00;40.30;;;;;;4922369;29;20111;-58
2021/03/24 08:15:01;;;;;;;15.00;13.02;;;22.00;40.30;;;;;;4922366;29;20410;-58
2021/03/24 08:17:33;;;;;;;15.93;12.77;;;22.00;39.90;;;;;;4903185;29;20091;-58
2021/03/24 08:20:25;;;;;;;15.05;11.25;;;22.10;39.80;;;;;;4921438;29;20028;-57
2021/03/24 08:22:57;;;;;;;11.77;9.85;;;22.10;40.00;;;;;;4886441;29;20042;-57
2021/03/24 08:25:52;;;;;;;11.75;8.90;;;22.10;39.70;;;;;;4922797;29;20028;-57
2021/03/24 08:28:30;;;;;;;14.00;9.20;;;22.00;39.60;;;;;;4922656;29;20103;-58
2021/03/24 08:31:18;;;;;;;10.73;8.48;;;22.00;39.70;;;;;;4921227;29;20036;-58
2021/03/24 08:34:08;;;;;;;12.57;9.38;;;22.00;39.70;;;;;;4921333;29;20068;-57
2021/03/24 08:37:01;;;;;;;11.90;8.40;;;21.90;39.70;;;;;;4904650;29;20032;-58
2021/03/24 08:40:01;;;;;;;12.43;8.38;;;22.00;39.80;;;;;;4921330;29;20359;-58
2021/03/24 08:42:44;;;;;;;8.83;6.70;;;21.90;39.70;;;;;;4921589;29;20032;-58
2021/03/24 08:45:27;;;;;;;7.70;6.03;;;22.00;39.70;;;;;;4904782;29;20329;-58
2021/03/24 08:48:00;;;;;;;12.30;6.32;;;22.00;39.50;;;;;;4921268;29;20478;-58
2021/03/24 08:50:40;;;;;;;16.05;5.18;;;22.00;39.40;;;;;;4921804;29;20043;-58
2021/03/24 08:53:24;;;;;;;9.45;7.22;;;22.00;39.40;;;;;;4921339;29;20047;-58
2021/03/24 08:56:33;;;;;;;16.35;12.43;;;22.00;39.20;;;;;;4917472;29;20047;-58
2021/03/24 08:59:31;;;;;;;15.77;10.00;;;22.10;39.30;;;;;;4863346;29;20064;-58
2021/03/24 09:02:20;;;;;;;11.00;7.07;;;22.10;39.10;;;;;;4878634;29;20065;-58
2021/03/24 09:05:09;;;;;;;10.43;6.75;;;22.20;39.20;;;;;;4847916;29;20080;-58
2021/03/24 09:07:50;;;;;;;9.85;6.38;;;22.20;39.20;;;;;;4878744;29;20547;-57
2021/03/24 09:10:28;;;;;;;7.88;6.07;;;22.30;39.20;;;;;;4878574;29;20043;-58
2021/03/24 09:13:03;;;;;;;7.18;6.47;;;22.30;39.30;;;;;;4862857;29;20391;-58
2021/03/24 09:15:46;;;;;;;10.95;7.63;;;22.30;39.10;;;;;;4878196;29;20065;-57
2021/03/24 09:18:21;;;;;;;19.58;9.10;;;22.40;39.10;;;;;;4878204;29;20484;-59
2021/03/24 09:21:12;;;;;;;25.67;8.63;;;22.40;39.20;;;;;;4862737;29;20549;-60
2021/03/24 09:23:50;;;;;;;22.13;9.93;;;22.40;39.30;;;;;;4867744;29;20562;-59
2021/03/24 09:26:33;;;;;;;14.45;6.05;;;22.50;39.20;;;;;;4877895;29;20037;-62
2021/03/24 09:29:04;;;;;;;14.68;5.60;;;22.60;38.90;;;;;;4877161;29;20051;-62
2021/03/24 09:31:49;;;;;;;;;;;22.60;38.70;;;;;;4877972;29;20550;-65
2021/03/24 09:34:33;;;;;;;37.15;25.58;;;22.70;39.40;;;;;;4891841;29;19911;-65
2021/03/24 09:37:09;;;;;;;26.23;20.95;;;22.80;38.90;;;;;;4900302;29;20481;-66
2021/03/24 09:39:45;;;;;;;20.50;10.75;;;22.80;38.70;;;;;;4899492;29;20063;-68
2021/03/24 09:42:31;;;;;;;8.30;4.97;;;22.80;38.30;;;;;;4916691;29;20099;-62
2021/03/24 09:45:20;;;;;;;12.82;3.80;;;22.90;38.60;;;;;;4916470;29;20118;-62
2021/03/24 09:47:55;;;;;;;4.85;2.83;;;23.00;40.10;;;;;;4916112;29;20043;-62
2021/03/24 09:51:01;;;;;;;3.67;2.42;;;23.00;41.10;;;;;;4916453;29;20040;-62
2021/03/24 09:53:29;;;;;;;5.82;3.22;;;23.10;41.50;;;;;;4910764;29;20406;-62
2021/03/24 09:55:55;;;;;;;6.90;3.03;;;23.20;42.30;;;;;;4899290;29;20091;-61
2021/03/24 09:58:29;;;;;;;4.45;2.55;;;23.30;42.80;;;;;;4916075;29;20040;-61
2021/03/24 10:01:07;;;;;;;4.70;2.30;;;23.30;43.60;;;;;;4915970;29;20028;-63
2021/03/24 10:03:54;;;;;;;4.40;2.35;;;23.30;44.20;;;;;;4915732;29;20100;-62
2021/03/24 10:06:39;;;;;;;5.90;2.53;;;23.40;44.40;;;;;;4915653;29;20079;-62
2021/03/24 10:09:18;;;;;;;9.70;2.78;;;23.40;44.60;;;;;;4916001;29;20029;-62
2021/03/24 10:11:54;;;;;;;5.30;3.05;;;23.50;45.00;;;;;;4915970;29;20459;-62
2021/03/24 10:14:37;;;;;;;5.35;2.83;;;23.50;45.00;;;;;;4882929;29;20495;-61
2021/03/24 10:17:08;;;;;;;4.78;2.75;;;23.50;45.10;;;;;;4898898;29;20115;-62
2021/03/24 10:19:41;;;;;;;5.97;3.47;;;23.60;45.30;;;;;;4898862;29;20032;-62
2021/03/24 10:22:36;;;;;;;4.97;3.17;;;23.60;45.70;;;;;;4899176;29;20036;-62
2021/03/24 10:25:20;;;;;;;4.50;3.40;;;23.60;45.50;;;;;;4894020;29;20044;-62
2021/03/24 10:27:49;;;;;;;4.30;3.20;;;23.70;46.00;;;;;;4895296;29;20520;-61
2021/03/24 10:30:15;;;;;;;4.78;2.80;;;23.70;46.00;;;;;;4914941;29;20104;-63
2021/03/24 10:33:05;;;;;;;7.25;3.40;;;23.80;45.80;;;;;;4915409;29;20054;-63
2021/03/24 10:35:47;;;;;;;5.13;3.25;;;23.80;46.00;;;;;;4907759;29;20087;-64
2021/03/24 10:38:13;;;;;;;6.82;3.25;;;23.90;46.30;;;;;;4915235;29;20423;-63
2021/03/24 10:40:46;;;;;;;6.53;3.90;;;23.90;46.40;;;;;;4898586;29;20494;-63
2021/03/24 10:43:27;;;;;;;5.13;3.05;;;24.00;46.90;;;;;;4915654;29;20032;-62
2021/03/24 10:46:57;;;;;;;5.35;3.20;;;24.00;46.70;;;;;;4915690;29;20031;-64
2021/03/24 10:49:27;;;;;;;;;;;24.10;46.60;;;;;;4890488;29;20043;-64
2021/03/24 10:52:02;;;;;;;3.50;3.20;;;24.20;45.90;;;;;;4915872;29;20031;-64
2021/03/24 10:54:44;;;;;;;5.32;3.55;;;24.30;46.60;;;;;;4915624;29;20481;-64
2021/03/24 10:58:00;;;;;;;5.20;3.60;;;24.30;46.40;;;;;;4915293;29;20058;-63
2021/03/24 11:01:03;;;;;;;8.40;3.03;;;24.40;46.50;;;;;;4912196;29;20060;-62
2021/03/24 11:03:54;;;;;;;5.85;3.20;;;24.40;46.40;;;;;;4897259;29;20028;-63
2021/03/24 11:06:41;;;;;;;4.53;3.80;;;24.50;46.60;;;;;;4915295;29;20062;-63
2021/03/24 11:09:18;;;;;;;5.15;3.58;;;24.60;46.80;;;;;;4895228;29;20032;-63
2021/03/24 11:12:02;;;;;;;6.25;3.40;;;24.60;46.90;;;;;;4897012;29;20107;-63
2021/03/24 11:14:41;;;;;;;4.15;3.38;;;24.70;46.80;;;;;;4914890;29;20048;-63
2021/03/24 11:17:11;;;;;;;5.03;3.75;;;24.70;46.80;;;;;;4914681;29;20071;-63
2021/03/24 11:19:43;;;;;;;7.82;3.88;;;24.80;46.60;;;;;;4914695;29;20048;-63
2021/03/24 11:22:30;;;;;;;7.00;3.75;;;24.90;46.60;;;;;;4897960;29;20040;-64
2021/03/24 11:25:18;;;;;;;5.22;3.95;;;24.90;46.60;;;;;;4897927;29;20371;-64
2021/03/24 11:27:48;;;;;;;6.43;3.58;;;25.00;46.60;;;;;;4897881;29;20032;-64
2021/03/24 11:30:27;;;;;;;5.53;3.50;;;25.10;46.50;;;;;;4897972;29;20036;-63
2021/03/24 11:32:59;;;;;;;5.93;3.58;;;25.20;46.70;;;;;;4898041;29;20061;-63
2021/03/24 11:35:55;;;;;;;5.00;3.17;;;25.30;46.60;;;;;;4897889;29;20059;-63
2021/03/24 11:38:31;;;;;;;7.55;3.17;;;25.40;46.50;;;;;;4897640;29;20065;-64
2021/03/24 11:41:14;;;;;;;5.25;3.00;;;25.50;46.40;;;;;;4881974;29;20040;-63
2021/03/24 11:43:45;;;;;;;5.28;3.63;;;25.60;46.00;;;;;;4914916;29;20044;-63
2021/03/24 11:46:44;;;;;;;6.10;3.17;;;25.60;46.30;;;;;;4897558;29;20501;-63
2021/03/24 11:49:22;;;;;;;4.38;2.58;;;25.70;46.20;;;;;;4879493;29;20047;-63
2021/03/24 11:52:10;;;;;;;4.40;2.40;;;25.80;46.60;;;;;;4881302;29;20444;-63
2021/03/24 11:55:05;;;;;;;3.95;2.55;;;25.90;46.90;;;;;;4914805;29;20040;-63
2021/03/24 11:57:52;;;;;;;9.73;2.67;;;26.00;46.70;;;;;;4914258;29;20042;-63
2021/03/24 12:00:46;;;;;;;6.47;2.63;;;26.10;47.00;;;;;;4897545;29;20122;-64
2021/03/24 12:03:33;;;;;;;2.85;2.25;;;26.10;46.90;;;;;;4897590;29;20032;-63
2021/03/24 12:06:19;;;;;;;4.30;2.70;;;26.20;47.30;;;;;;4913993;29;20040;-64
2021/03/24 12:08:45;;;;;;;3.63;2.60;;;26.30;47.20;;;;;;4914153;29;20040;-64
2021/03/24 12:11:29;;;;;;;3.47;2.63;;;26.50;48.10;;;;;;4914328;29;20467;-63
2021/03/24 12:14:15;;;;;;;4.40;2.67;;;26.70;47.10;;;;;;4914497;29;20082;-64
2021/03/24 12:17:02;;;;;;;4.05;2.85;;;27.10;46.80;;;;;;4897304;29;20119;-65
2021/03/24 12:19:30;;;;;;;2.75;2.53;;;27.60;46.10;;;;;;4914579;29;20032;-68
2021/03/24 12:22:00;;;;;;;4.38;2.90;;;28.20;44.70;;;;;;4914317;29;20115;-62
2021/03/24 12:24:40;;;;;;;9.95;3.25;;;28.70;43.50;;;;;;4914344;29;20059;-65
2021/03/24 12:27:15;;;;;;;11.00;3.45;;;29.10;42.10;;;;;;4914419;29;20032;-65
2021/03/24 12:30:22;;;;;;;12.70;4.13;;;29.30;41.20;;;;;;4898847;29;20402;-65
2021/03/24 12:32:49;;;;;;;11.95;3.63;;;29.40;41.10;;;;;;4893368;29;20052;-65
2021/03/24 12:35:20;;;;;;;12.05;3.38;;;29.40;40.70;;;;;;4900917;29;20064;-65
2021/03/24 12:37:51;;;;;;;13.57;3.25;;;29.30;40.60;;;;;;4901113;29;20127;-65
2021/03/24 12:40:23;;;;;;;8.52;3.50;;;29.20;40.70;;;;;;4900601;29;20172;-65
2021/03/24 12:43:04;;;;;;;6.85;2.70;;;29.00;40.80;;;;;;4901024;29;20035;-65
2021/03/24 12:45:39;;;;;;;5.22;2.53;;;28.80;41.10;;;;;;4917119;29;20118;-63
2021/03/24 12:48:13;;;;;;;5.47;2.72;;;28.70;41.40;;;;;;4900328;29;20581;-65
2021/03/24 12:50:53;;;;;;;11.90;3.50;;;28.50;41.60;;;;;;4899970;29;20032;-65
2021/03/24 12:53:42;;;;;;;5.97;2.08;;;28.40;41.70;;;;;;4917425;29;20537;-65
2021/03/24 12:56:33;;;;;;;7.45;2.33;;;28.20;42.70;;;;;;4908327;29;20163;-65
2021/03/24 12:59:17;;;;;;;7.70;2.63;;;28.00;42.20;;;;;;4917295;29;20036;-64
2021/03/24 13:01:57;;;;;;;5.82;2.38;;;28.00;42.50;;;;;;4900640;29;20028;-65
2021/03/24 13:04:32;;;;;;;10.35;2.25;;;27.80;42.60;;;;;;4917211;29;20034;-65
2021/03/24 13:07:16;;;;;;;7.65;2.28;;;27.70;42.70;;;;;;4917301;29;20058;-65
2021/03/24 13:10:01;;;;;;;4.55;2.20;;;27.60;42.90;;;;;;4916147;29;20027;-66
2021/03/24 13:12:34;;;;;;;6.22;2.10;;;27.50;43.00;;;;;;4899707;29;20111;-65
2021/03/24 13:15:03;;;;;;;3.53;1.65;;;27.40;43.00;;;;;;4916061;29;20062;-65
2021/03/24 13:17:42;;;;;;;5.85;2.13;;;27.40;43.10;;;;;;4899463;29;20493;-66
2021/03/24 13:20:26;;;;;;;5.78;1.98;;;27.30;43.30;;;;;;4916858;29;20387;-66
2021/03/24 13:22:57;;;;;;;5.55;2.17;;;27.20;43.40;;;;;;4916821;29;20028;-66
2021/03/24 13:25:37;;;;;;;5.22;2.00;;;27.20;43.40;;;;;;4899854;29;20383;-66
2021/03/24 13:28:18;;;;;;;7.93;2.30;;;27.10;44.10;;;;;;4883814;29;20036;-65
2021/03/24 13:31:06;;;;;;;4.57;2.00;;;27.00;43.50;;;;;;4916646;29;20039;-65
2021/03/24 13:34:00;;;;;;;4.43;1.92;;;27.00;43.40;;;;;;4916612;29;20062;-65
2021/03/24 13:36:32;;;;;;;4.65;1.75;;;26.90;43.20;;;;;;4916671;29;20141;-65
2021/03/24 13:39:20;;;;;;;6.60;2.30;;;26.90;43.20;;;;;;4916610;29;20027;-65
2021/03/24 13:42:01;;;;;;;2.35;1.73;;;26.80;43.20;;;;;;4898867;29;20035;-65